Alpine Airstrip, AK

7:28 AM AKDT on July 22, 2014 (GMT -0800)
Nuiqsut (PAQT) Elev 39 ft | 70.21 °N, 150.99 °W | Change Station

Current weather conditions updated 35 minutes ago

Light Rain
Light Rain
42 °F
Feels Like 42 °F
N
0
Wind Variable Wind from North

Today is forecast to be Much Cooler than yesterday. Morning showers.

Today
High -- | Low -- °F
--% Chance of Precip.
Yesterday
High -- | Low -- °F
Precip. -- in
2:42 AM 1:37 AM
Waning Crescent, 16% visible
Pressure 29.91 in
Visibility 10.0 miles
Clouds Overcast 1500 ft
Dew Point 39 °F
Humidity 89%
Rainfall 0.00 in
Snow Depth Not available.
UV 0 out of 12
Pollen Not available.
Air Quality Not available.
Flu Activity Sporadic
METAR PAQT 221453Z AUTO 00000KT 10SM -RA OVC015 06/04 A2990 RMK SLP126 P0000 60000 T00560039 57002 TSNO $ VIA AUTODIAL

More Conditions Fewer Conditions

Pressure 29.91 in
Visibility 10.0 miles
Clouds Overcast 1500 ft
Dew Point 39 °F
Humidity 89%
Rainfall 0.00 in
Snow Depth Not available.
UV 0 out of 12
Pollen Not available.
Air Quality Not available.
Flu Activity Sporadic
METAR PAQT 221453Z AUTO 00000KT 10SM -RA OVC015 06/04 A2990 RMK SLP126 P0000 60000 T00560039 57002 TSNO $ VIA AUTODIAL

More Conditions Fewer Conditions

10-Day Weather Forecast

LIGHTNING

Thunderstorms are forecast for your area. Cloud conditions might be right for producing strikes in the next few days, though lightning itself cannot be forecasted.

Lightning is a visible electrical discharge produced by a thunderstorm, based on the build up of oppositely charged particles within a cloud and from cloud to ground.

Know how to stay safe in a lightning storm.

Check out these Lightning WunderPhotos!

Almanac

Astronomy

Jul. 22, 2014 Rise Set
Actual Time 2:42 AM AKDT 1:37 AM AKDT
Civil Twilight Sun does not rise Sun does not rise
Nautical Twilight Sun does not rise Sun does not rise
Astronomical Twilight Sun does not rise Sun does not rise
Moon 12:06 AM AKDT 10:03 PM AKDT
Length of Visible Light 24h 00m
Length of Day
22h 55m
Tomorrow will be 0m 0s shorter.
Waning Crescent, 16% of the Moon is Illuminated
Today
Waning Crescent
Jul 26
New
Aug 3
First Quarter
Aug 10
Full
Aug 17
Last Quarter

Today's Extremes

State Highs State Lows

Community

WunderPhotos

Upload Photos

1,736,265 photos uploaded!

WunderBlogs® & News

Nearby

Snow Depth

Station Depth Elevation
Imnaviat Creek 0 in 3050 ft
Atigun Pass 0 in 4800 ft
Coldfoot 1 in 1040 ft
Gobblers Knob 0 in 2030 ft
Fort Yukon 2 in 430 ft

Earthquake Activity

City Distance Mag. Time & Date
No recent earthquake activity has been reported nearby.
Minimum magnitude displayed is 2.5.

Coastal Water Temperatures

Place Temperature
No Stations Reporting

Nearby Weather Stations

Station Location Temp. Windchill Dew Point Humidity Wind Precip. Elev Updated Type
HADS JUDY CREEK NEAR NUIQSUT 17W , Barrow, AK 40 °F 40 °F - - North  at  - 0.00 in / hr 42 ft 6:00 AM AKDT MADIS

Show More Stations Show Fewer Stations